createdAt,value
2022-12-11T00:00:55.820Z,4.12
2022-12-11T00:01:58.755Z,4.17
2022-12-11T00:03:01.159Z,4.09
2022-12-11T00:04:05.896Z,4.04
2022-12-11T00:05:09.048Z,4.09
2022-12-11T00:06:15.037Z,4.14
2022-12-11T00:07:17.654Z,4.11
2022-12-11T00:08:20.267Z,4.15
2022-12-11T00:09:22.832Z,4.20
2022-12-11T00:10:25.796Z,4.12
2022-12-11T00:11:30.401Z,4.10
2022-12-11T00:12:32.770Z,4.11
2022-12-11T00:13:35.828Z,4.01
2022-12-11T00:14:38.336Z,4.12
2022-12-11T00:15:40.684Z,4.16
2022-12-11T00:16:43.664Z,4.13
2022-12-11T00:17:46.014Z,4.10
2022-12-11T00:18:48.576Z,4.03
2022-12-11T00:19:51.145Z,4.06
2022-12-11T00:20:53.595Z,4.05
2022-12-11T00:21:55.934Z,4.06
2022-12-11T00:22:58.289Z,4.07
2022-12-11T00:24:01.007Z,4.04
2022-12-11T00:25:03.775Z,4.06
2022-12-11T00:26:12.689Z,4.06
2022-12-11T00:27:15.155Z,4.05
2022-12-11T00:28:19.095Z,4.07
2022-12-11T00:29:21.443Z,4.02
2022-12-11T00:30:23.697Z,4.05
2022-12-11T00:31:26.353Z,4.00
2022-12-11T00:32:47.406Z,3.99
2022-12-11T00:33:51.456Z,4.06
2022-12-11T00:34:53.732Z,4.07
2022-12-11T00:35:58.685Z,4.04
2022-12-11T00:37:01.046Z,4.07
2022-12-11T00:38:03.523Z,4.03
2022-12-11T00:39:07.591Z,4.10
2022-12-11T00:40:12.329Z,4.02
2022-12-11T00:41:15.825Z,4.07
2022-12-11T00:42:18.141Z,4.01
2022-12-11T00:43:20.558Z,4.01
2022-12-11T00:44:22.846Z,3.97
2022-12-11T00:45:25.250Z,3.99
2022-12-11T00:46:27.543Z,3.98
2022-12-11T00:47:32.341Z,3.96
2022-12-11T00:48:35.129Z,3.97
2022-12-11T00:49:37.396Z,3.96
2022-12-11T00:50:40.707Z,3.98
2022-12-11T00:51:43.377Z,3.98
2022-12-11T00:52:45.766Z,3.95
2022-12-11T00:53:48.331Z,3.87
2022-12-11T00:54:50.667Z,3.95
2022-12-11T00:55:53.100Z,3.92
2022-12-11T00:56:56.246Z,3.93
2022-12-11T00:57:58.710Z,3.97
2022-12-11T00:59:01.292Z,3.93
2022-12-11T01:00:07.242Z,3.92
2022-12-11T01:01:12.390Z,3.89
2022-12-11T01:02:14.966Z,3.83
2022-12-11T01:03:18.227Z,3.86
2022-12-11T01:04:20.690Z,3.88
2022-12-11T01:05:23.013Z,3.82
2022-12-11T01:06:27.781Z,3.91
2022-12-11T01:07:30.090Z,3.81
2022-12-11T01:08:38.486Z,3.86
2022-12-11T01:09:59.907Z,3.74
2022-12-11T01:11:05.265Z,3.79
2022-12-11T01:12:08.500Z,3.83
2022-12-11T01:13:13.512Z,3.88
2022-12-11T01:14:15.855Z,3.83
2022-12-11T01:15:19.316Z,3.80
2022-12-11T01:16:22.074Z,3.77
2022-12-11T01:17:24.719Z,3.73
2022-12-11T01:18:27.383Z,3.72
2022-12-11T01:19:29.689Z,3.73
2022-12-11T01:20:32.607Z,3.72
2022-12-11T01:21:34.983Z,3.73
2022-12-11T01:22:37.350Z,3.71
2022-12-11T01:23:40.225Z,3.71
2022-12-11T01:24:42.571Z,3.70
2022-12-11T01:25:44.979Z,3.73
2022-12-11T01:26:47.430Z,3.62
2022-12-11T01:27:54.783Z,3.71
2022-12-11T01:28:57.149Z,3.77
2022-12-11T01:29:59.476Z,3.59
2022-12-11T01:31:01.896Z,3.61
2022-12-11T01:32:04.395Z,3.59
2022-12-11T01:33:06.729Z,3.60
2022-12-11T01:34:09.119Z,3.68
2022-12-11T01:35:12.789Z,3.62
2022-12-11T01:36:20.790Z,3.56
2022-12-11T01:37:23.140Z,3.53
2022-12-11T01:38:25.750Z,3.47
2022-12-11T01:39:28.870Z,3.49
2022-12-11T01:40:31.195Z,3.48
2022-12-11T01:41:33.564Z,3.46
2022-12-11T01:42:38.974Z,3.48
2022-12-11T01:44:01.971Z,3.38
2022-12-11T01:45:24.631Z,3.46
2022-12-11T01:46:30.622Z,3.43
2022-12-11T01:47:33.098Z,3.42
2022-12-11T01:48:41.964Z,3.41
2022-12-11T01:49:44.740Z,3.33
2022-12-11T01:50:53.701Z,3.32
2022-12-11T01:52:17.011Z,3.30
2022-12-11T01:53:41.128Z,3.29
2022-12-11T01:54:43.937Z,3.32
2022-12-11T01:55:47.537Z,3.36
2022-12-11T01:56:53.671Z,3.33
2022-12-11T01:57:56.157Z,3.28
2022-12-11T01:59:07.444Z,3.20
2022-12-11T02:00:10.542Z,3.28
2022-12-11T02:01:25.192Z,3.23
2022-12-11T02:02:30.953Z,3.28
2022-12-11T02:03:33.626Z,3.26
2022-12-11T02:04:37.929Z,3.21
2022-12-11T02:05:40.331Z,3.20
2022-12-11T02:06:48.356Z,3.25
2022-12-11T02:07:55.257Z,3.25
2022-12-11T02:08:57.910Z,3.21
2022-12-11T02:10:00.290Z,3.19
2022-12-11T02:11:18.330Z,3.19
2022-12-11T02:12:38.841Z,3.22
2022-12-11T02:13:49.536Z,3.14
2022-12-11T02:15:25.708Z,3.16
2022-12-11T02:16:43.107Z,3.17
2022-12-11T02:22:07.756Z,3.12
2022-12-11T02:23:13.038Z,3.05
2022-12-11T02:24:25.314Z,3.05
2022-12-11T02:25:35.961Z,3.06
2022-12-11T02:26:56.227Z,3.08
2022-12-11T02:28:22.134Z,3.04
2022-12-11T02:29:43.617Z,3.08
2022-12-11T02:30:53.400Z,3.03
2022-12-11T02:32:03.450Z,3.05
2022-12-11T02:33:07.424Z,3.05
2022-12-11T02:34:37.833Z,3.02
2022-12-11T02:35:43.623Z,3.03
2022-12-11T02:36:54.506Z,3.01
2022-12-11T02:38:01.770Z,3.00
2022-12-11T02:39:07.389Z,2.98
2022-12-11T02:40:13.282Z,2.99
2022-12-11T02:41:15.656Z,2.97
2022-12-11T02:42:19.134Z,3.04
2022-12-11T02:43:22.589Z,3.06
2022-12-11T02:44:30.649Z,3.01
2022-12-11T02:45:35.028Z,2.93
2022-12-11T02:46:38.733Z,2.93
2022-12-11T02:47:43.778Z,2.93
2022-12-11T02:48:49.294Z,2.91
2022-12-11T02:49:55.430Z,2.95
2022-12-11T02:50:59.860Z,2.95
2022-12-11T02:52:04.193Z,2.95
2022-12-11T02:53:07.174Z,2.95
2022-12-11T02:54:14.632Z,2.98
2022-12-11T02:55:18.183Z,2.89
2022-12-11T02:56:25.821Z,2.91
2022-12-11T02:57:36.189Z,2.84
2022-12-11T02:58:50.687Z,2.91
2022-12-11T02:59:56.279Z,2.86
2022-12-11T03:00:58.834Z,2.89
2022-12-11T03:02:02.438Z,2.86
2022-12-11T03:03:05.223Z,2.89
2022-12-11T03:04:07.658Z,2.93
2022-12-11T03:05:12.412Z,2.86
2022-12-11T03:06:20.394Z,2.86
2022-12-11T03:07:26.387Z,2.88
2022-12-11T03:08:28.789Z,2.84
2022-12-11T03:09:31.043Z,2.91
2022-12-11T03:10:33.522Z,2.88
2022-12-11T03:11:35.794Z,2.91
2022-12-11T03:12:42.371Z,2.95
2022-12-11T03:13:44.778Z,2.94
2022-12-11T03:14:49.154Z,2.95
2022-12-11T03:16:03.461Z,2.95
2022-12-11T03:21:20.685Z,2.89
2022-12-11T03:22:39.128Z,2.91
2022-12-11T03:24:03.385Z,2.94
2022-12-11T03:25:31.223Z,2.93
2022-12-11T03:26:41.485Z,2.94
2022-12-11T03:28:12.393Z,2.87
2022-12-11T03:29:21.469Z,2.92
2022-12-11T03:30:26.005Z,2.89
2022-12-11T03:31:56.813Z,2.90
2022-12-11T03:33:05.391Z,2.82
2022-12-11T03:34:26.070Z,2.88
2022-12-11T03:35:31.671Z,2.93
2022-12-11T03:36:37.656Z,2.96
2022-12-11T03:37:44.730Z,2.94
2022-12-11T03:38:52.683Z,2.97
2022-12-11T03:40:02.901Z,2.88
2022-12-11T03:41:07.230Z,2.95
2022-12-11T03:42:13.472Z,2.95
2022-12-11T03:43:17.303Z,3.00
2022-12-11T03:44:20.933Z,2.96
2022-12-11T03:45:25.787Z,2.98
2022-12-11T03:46:33.089Z,2.98
2022-12-11T03:47:39.320Z,3.01
2022-12-11T03:48:45.335Z,2.98
2022-12-11T03:49:49.425Z,3.01
2022-12-11T03:50:52.633Z,2.99
2022-12-11T03:51:58.153Z,2.99
2022-12-11T03:53:01.827Z,3.02
2022-12-11T03:54:04.287Z,2.99
2022-12-11T03:55:07.109Z,3.01
2022-12-11T03:56:12.425Z,2.91
2022-12-11T03:57:33.827Z,2.92
2022-12-11T03:58:36.170Z,2.92
2022-12-11T03:59:38.683Z,2.93
2022-12-11T04:00:41.111Z,2.92
2022-12-11T04:01:43.571Z,2.90
2022-12-11T04:03:12.727Z,2.90
2022-12-11T04:04:15.764Z,2.94
2022-12-11T04:05:18.163Z,2.94
2022-12-11T04:06:20.720Z,2.98
2022-12-11T04:07:25.701Z,2.95
2022-12-11T04:08:28.254Z,2.91
2022-12-11T04:09:30.936Z,3.05
2022-12-11T04:10:33.517Z,2.94
2022-12-11T04:11:36.031Z,3.02
2022-12-11T04:12:38.239Z,3.01
2022-12-11T04:13:41.423Z,2.94
2022-12-11T04:15:02.118Z,2.92
2022-12-11T04:16:05.303Z,2.90
2022-12-11T04:21:43.661Z,2.94
2022-12-11T04:23:04.555Z,2.81
2022-12-11T04:24:16.901Z,2.98
2022-12-11T04:25:19.283Z,2.88
2022-12-11T04:26:21.820Z,2.84
2022-12-11T04:27:43.023Z,2.75
2022-12-11T04:28:47.332Z,2.73
2022-12-11T04:29:50.296Z,2.71
2022-12-11T04:30:52.672Z,2.62
2022-12-11T04:31:55.538Z,2.67
2022-12-11T04:32:57.992Z,2.62
2022-12-11T04:34:00.212Z,2.59
2022-12-11T04:35:02.986Z,2.54
2022-12-11T04:36:06.441Z,2.53
2022-12-11T04:37:08.723Z,2.54
2022-12-11T04:38:11.276Z,2.53
2022-12-11T04:39:13.641Z,2.53
2022-12-11T04:40:18.072Z,2.60
2022-12-11T04:41:20.441Z,2.56
2022-12-11T04:42:22.884Z,2.55
2022-12-11T04:43:25.280Z,2.52
2022-12-11T04:44:27.467Z,2.47
2022-12-11T04:45:30.590Z,2.41
2022-12-11T04:46:33.542Z,2.37
2022-12-11T04:47:37.456Z,2.47
2022-12-11T04:48:40.332Z,2.41
2022-12-11T04:49:42.818Z,2.46
2022-12-11T04:50:45.134Z,2.42
2022-12-11T04:51:47.437Z,2.34
2022-12-11T04:52:49.772Z,2.28
2022-12-11T04:53:52.195Z,2.39
2022-12-11T04:54:54.693Z,2.42
2022-12-11T04:55:57.240Z,2.40
2022-12-11T04:56:59.916Z,2.29
2022-12-11T04:58:02.227Z,2.31
2022-12-11T04:59:04.490Z,2.28
2022-12-11T05:00:09.906Z,2.33
2022-12-11T05:01:15.434Z,2.39
2022-12-11T05:02:18.849Z,2.33
2022-12-11T05:03:23.894Z,2.42
2022-12-11T05:04:26.476Z,2.41
2022-12-11T05:05:28.740Z,2.47
2022-12-11T05:06:31.412Z,2.38
2022-12-11T05:07:33.955Z,2.43
2022-12-11T05:08:38.278Z,2.33
2022-12-11T05:09:40.645Z,2.41
2022-12-11T05:10:48.588Z,2.42
2022-12-11T05:11:52.574Z,2.47
2022-12-11T05:12:55.027Z,2.31
2022-12-11T05:13:57.367Z,2.42
2022-12-11T05:14:59.677Z,2.31
2022-12-11T05:16:05.534Z,2.34
2022-12-11T05:21:35.029Z,2.32
2022-12-11T05:22:38.515Z,2.19
2022-12-11T05:23:41.680Z,2.17
2022-12-11T05:24:44.756Z,2.22
2022-12-11T05:25:53.465Z,2.22
2022-12-11T05:26:56.268Z,2.33
2022-12-11T05:28:01.245Z,2.33
2022-12-11T05:29:03.771Z,2.34
2022-12-11T05:30:06.885Z,2.37
2022-12-11T05:31:15.204Z,2.37
2022-12-11T05:32:17.539Z,2.37
2022-12-11T05:33:20.053Z,2.32
2022-12-11T05:34:22.347Z,2.33
2022-12-11T05:35:24.717Z,2.30
2022-12-11T05:36:30.562Z,2.36
2022-12-11T05:37:34.275Z,2.39
2022-12-11T05:38:36.976Z,2.35
2022-12-11T05:39:39.402Z,2.34
2022-12-11T05:40:41.941Z,2.28
2022-12-11T05:41:44.191Z,2.32
2022-12-11T05:42:46.539Z,2.22
2022-12-11T05:43:49.043Z,2.23
2022-12-11T05:44:51.341Z,2.28
2022-12-11T05:45:54.051Z,2.34
2022-12-11T05:46:56.374Z,2.46
2022-12-11T05:47:58.708Z,2.29
2022-12-11T05:49:03.238Z,2.27
2022-12-11T05:50:05.948Z,2.43
2022-12-11T05:51:09.185Z,2.39
2022-12-11T05:52:11.491Z,2.40
2022-12-11T05:53:13.837Z,2.37
2022-12-11T05:54:16.595Z,2.38
2022-12-11T05:55:18.838Z,2.38
2022-12-11T05:56:25.004Z,2.30
2022-12-11T05:57:27.770Z,2.33
2022-12-11T05:58:30.591Z,2.25
2022-12-11T05:59:33.462Z,2.27
2022-12-11T06:00:36.418Z,2.13
2022-12-11T06:01:41.509Z,2.21
2022-12-11T06:02:44.111Z,2.11
2022-12-11T06:03:47.069Z,2.10
2022-12-11T06:04:49.490Z,2.14
2022-12-11T06:05:54.570Z,2.16
2022-12-11T06:06:56.884Z,2.10
2022-12-11T06:07:59.237Z,2.14
2022-12-11T06:09:01.931Z,2.14
2022-12-11T06:10:04.755Z,2.08
2022-12-11T06:11:07.370Z,2.04
2022-12-11T06:12:09.837Z,2.01
2022-12-11T06:13:12.131Z,1.98
2022-12-11T06:14:14.606Z,1.89
2022-12-11T06:15:17.052Z,1.89
2022-12-11T06:16:20.398Z,1.94
2022-12-11T06:17:22.837Z,1.81
2022-12-11T06:18:25.568Z,1.78
2022-12-11T06:19:31.904Z,1.86
2022-12-11T06:20:37.610Z,1.81
2022-12-11T06:21:40.036Z,1.71
2022-12-11T06:22:42.523Z,1.68
2022-12-11T06:23:47.043Z,1.83
2022-12-11T06:24:49.519Z,1.84
2022-12-11T06:25:51.911Z,1.74
2022-12-11T06:26:54.350Z,1.71
2022-12-11T06:27:56.778Z,1.70
2022-12-11T06:28:59.431Z,1.73
2022-12-11T06:30:01.728Z,1.76
2022-12-11T06:31:04.319Z,1.87
2022-12-11T06:32:07.174Z,1.76
2022-12-11T06:33:09.336Z,1.80
2022-12-11T06:34:13.985Z,1.78
2022-12-11T06:35:16.606Z,1.78
2022-12-11T06:36:22.230Z,1.81
2022-12-11T06:37:24.607Z,1.84
2022-12-11T06:38:26.987Z,1.71
2022-12-11T06:39:30.279Z,1.72
2022-12-11T06:40:33.694Z,1.69
2022-12-11T06:41:36.984Z,1.77
2022-12-11T06:42:39.322Z,1.76
2022-12-11T06:43:43.564Z,1.67
2022-12-11T06:44:46.165Z,1.63
2022-12-11T06:45:48.466Z,1.70
2022-12-11T06:46:50.904Z,1.78
2022-12-11T06:47:53.404Z,1.76
2022-12-11T06:48:55.937Z,1.68
2022-12-11T06:49:58.616Z,1.70
2022-12-11T06:51:05.219Z,1.61
2022-12-11T06:52:07.642Z,1.63
2022-12-11T06:53:10.565Z,1.80
2022-12-11T06:54:15.173Z,1.74
2022-12-11T06:55:17.490Z,1.70
2022-12-11T06:56:20.520Z,1.79
2022-12-11T06:57:23.134Z,1.78
2022-12-11T06:58:26.050Z,1.73
2022-12-11T06:59:28.433Z,1.73
2022-12-11T07:00:31.603Z,1.72
2022-12-11T07:01:34.315Z,1.75
2022-12-11T07:02:36.671Z,1.77
2022-12-11T07:03:39.355Z,1.79
2022-12-11T07:04:42.563Z,1.78
2022-12-11T07:05:44.914Z,1.88
2022-12-11T07:06:49.374Z,1.82
2022-12-11T07:07:54.708Z,1.65
2022-12-11T07:08:57.559Z,1.76
2022-12-11T07:10:18.439Z,1.74
2022-12-11T07:11:21.180Z,1.75
2022-12-11T07:12:23.518Z,1.69
2022-12-11T07:13:25.932Z,1.67
2022-12-11T07:14:28.468Z,1.64
2022-12-11T07:15:37.699Z,1.65
2022-12-11T07:16:42.692Z,1.66
2022-12-11T07:17:45.167Z,1.67
2022-12-11T07:18:50.337Z,1.70
2022-12-11T07:19:52.739Z,1.66
2022-12-11T07:20:55.089Z,1.59
2022-12-11T07:22:00.508Z,1.51
2022-12-11T07:23:02.954Z,1.63
2022-12-11T07:24:05.631Z,1.61
2022-12-11T07:25:08.682Z,1.68
2022-12-11T07:26:14.123Z,1.67
2022-12-11T07:27:16.425Z,1.68
2022-12-11T07:28:18.778Z,1.61
2022-12-11T07:29:21.464Z,1.68
2022-12-11T07:30:24.046Z,1.71
2022-12-11T07:31:28.209Z,1.64
2022-12-11T07:32:31.083Z,1.64
2022-12-11T07:33:34.069Z,1.58
2022-12-11T07:34:44.122Z,1.50
2022-12-11T07:35:49.794Z,1.59
2022-12-11T07:36:52.118Z,1.58
2022-12-11T07:37:54.617Z,1.62
2022-12-11T07:38:57.140Z,1.68
2022-12-11T07:39:59.537Z,1.65
2022-12-11T07:41:06.647Z,1.79
2022-12-11T07:42:09.067Z,1.76
2022-12-11T07:43:11.227Z,1.74
2022-12-11T07:44:13.787Z,1.70
2022-12-11T07:45:16.289Z,1.64
2022-12-11T07:46:22.333Z,1.61
2022-12-11T07:47:24.749Z,1.61
2022-12-11T07:48:26.978Z,1.64
2022-12-11T07:49:29.592Z,1.68
2022-12-11T07:50:38.051Z,1.52
2022-12-11T07:51:43.180Z,1.46
2022-12-11T07:52:45.556Z,1.49
2022-12-11T07:53:49.755Z,1.55
2022-12-11T07:54:51.996Z,1.54
2022-12-11T07:55:54.420Z,1.44
2022-12-11T07:56:56.944Z,1.46
2022-12-11T07:58:01.694Z,1.34
2022-12-11T07:59:05.579Z,1.36
2022-12-11T08:00:08.716Z,1.31
2022-12-11T08:01:20.625Z,1.23
2022-12-11T08:02:23.000Z,1.24
2022-12-11T08:03:25.672Z,1.18
2022-12-11T08:04:28.010Z,1.29
2022-12-11T08:05:30.612Z,1.30
2022-12-11T08:06:35.387Z,1.25
2022-12-11T08:07:37.670Z,1.00
2022-12-11T08:08:41.854Z,0.94
2022-12-11T08:09:44.074Z,0.90
2022-12-11T08:10:46.693Z,0.94
2022-12-11T08:11:52.317Z,1.02
2022-12-11T08:12:55.550Z,1.08
2022-12-11T08:13:59.589Z,1.06
2022-12-11T08:15:01.893Z,0.94
2022-12-11T08:16:08.094Z,0.96
2022-12-11T08:21:51.651Z,0.94
2022-12-11T08:22:58.891Z,0.82
2022-12-11T08:24:01.754Z,0.77
2022-12-11T08:25:04.382Z,0.93
2022-12-11T08:26:09.234Z,0.87
2022-12-11T08:27:11.488Z,0.87
2022-12-11T08:28:14.591Z,0.95
2022-12-11T08:29:17.013Z,0.88
2022-12-11T08:30:19.269Z,0.95
2022-12-11T08:31:22.002Z,0.89
2022-12-11T08:32:24.571Z,0.93
2022-12-11T08:33:26.978Z,0.86
2022-12-11T08:34:29.254Z,0.86
2022-12-11T08:35:31.780Z,0.92
2022-12-11T08:36:34.303Z,0.89
2022-12-11T08:37:36.678Z,0.96
2022-12-11T08:38:39.797Z,0.98
2022-12-11T08:39:43.952Z,1.08
2022-12-11T08:40:46.176Z,1.09
2022-12-11T08:41:48.576Z,1.09
2022-12-11T08:42:54.367Z,1.07
2022-12-11T08:43:58.831Z,0.91
2022-12-11T08:45:01.099Z,0.99
2022-12-11T08:46:03.390Z,0.99
2022-12-11T08:47:05.827Z,0.97
2022-12-11T08:48:08.108Z,1.07
2022-12-11T08:49:10.714Z,1.11
2022-12-11T08:50:13.434Z,1.18
2022-12-11T08:51:18.356Z,1.14
2022-12-11T08:52:20.619Z,1.19
2022-12-11T08:53:22.849Z,1.11
2022-12-11T08:54:25.582Z,1.06
2022-12-11T08:55:27.908Z,1.15
2022-12-11T08:56:30.739Z,1.15
2022-12-11T08:57:33.011Z,1.09
2022-12-11T08:58:35.995Z,1.25
2022-12-11T08:59:38.344Z,1.23
2022-12-11T09:00:40.900Z,1.31
2022-12-11T09:01:43.229Z,1.34
2022-12-11T09:02:45.697Z,1.36
2022-12-11T09:03:49.299Z,1.33
2022-12-11T09:04:51.574Z,1.34
2022-12-11T09:05:53.986Z,1.31
2022-12-11T09:06:56.567Z,1.48
2022-12-11T09:07:59.132Z,1.47
2022-12-11T09:09:01.999Z,1.42
2022-12-11T09:10:06.210Z,1.33
2022-12-11T09:11:11.583Z,1.49
2022-12-11T09:12:14.151Z,1.50
2022-12-11T09:13:16.425Z,1.48
2022-12-11T09:14:18.978Z,1.53
2022-12-11T09:15:21.399Z,1.51
2022-12-11T09:16:25.600Z,1.57
2022-12-11T09:17:28.219Z,1.52
2022-12-11T09:18:31.589Z,1.56
2022-12-11T09:19:34.019Z,1.54
2022-12-11T09:20:37.605Z,1.51
2022-12-11T09:21:40.559Z,1.52
2022-12-11T09:22:43.096Z,1.56
2022-12-11T09:23:45.581Z,1.61
2022-12-11T09:24:47.931Z,1.55
2022-12-11T09:25:50.239Z,1.57
2022-12-11T09:26:52.622Z,1.70
2022-12-11T09:27:54.979Z,1.69
2022-12-11T09:28:58.445Z,1.75
2022-12-11T09:30:00.867Z,1.69
2022-12-11T09:31:14.445Z,1.79
2022-12-11T09:32:16.754Z,1.80
2022-12-11T09:33:19.289Z,1.86
2022-12-11T09:34:28.693Z,1.87
2022-12-11T09:35:31.589Z,1.91
2022-12-11T09:36:35.244Z,1.83
2022-12-11T09:37:37.946Z,1.85
2022-12-11T09:38:40.374Z,1.91
2022-12-11T09:39:42.942Z,2.00
2022-12-11T09:40:45.702Z,1.97
2022-12-11T09:41:56.912Z,1.93
2022-12-11T09:43:22.844Z,2.08
2022-12-11T09:44:43.696Z,2.01
2022-12-11T09:45:46.679Z,2.04
2022-12-11T09:46:50.199Z,2.03
2022-12-11T09:47:55.649Z,1.93
2022-12-11T09:48:58.683Z,2.02
2022-12-11T09:50:09.739Z,1.98
2022-12-11T09:51:22.759Z,1.90
2022-12-11T09:52:53.335Z,2.01
2022-12-11T09:54:00.776Z,1.98
2022-12-11T09:55:13.315Z,1.96
2022-12-11T09:56:39.621Z,2.06
2022-12-11T09:58:09.708Z,1.96
2022-12-11T09:59:33.113Z,2.06
2022-12-11T10:01:03.589Z,2.06
2022-12-11T10:02:06.160Z,2.06
2022-12-11T10:03:29.604Z,2.14
2022-12-11T10:04:37.785Z,2.17
2022-12-11T10:06:04.007Z,2.18
2022-12-11T10:11:28.744Z,2.07
2022-12-11T10:12:40.736Z,2.11
2022-12-11T10:13:55.006Z,2.13
2022-12-11T10:15:33.996Z,2.14
2022-12-11T10:16:44.127Z,2.19
2022-12-11T10:17:47.430Z,2.17
2022-12-11T10:18:50.232Z,2.14
2022-12-11T10:19:53.042Z,2.21
2022-12-11T10:20:56.866Z,2.22
2022-12-11T10:22:01.207Z,2.28
2022-12-11T10:23:06.356Z,2.28
2022-12-11T10:26:07.283Z,2.23
2022-12-11T10:31:56.661Z,2.22
2022-12-11T10:33:23.436Z,2.30
2022-12-11T10:34:37.755Z,2.34
2022-12-11T10:35:48.972Z,2.38
2022-12-11T10:41:36.693Z,2.59
2022-12-11T10:42:45.500Z,2.57
2022-12-11T10:43:50.890Z,2.61
2022-12-11T10:45:02.812Z,2.69
2022-12-11T10:46:07.852Z,2.59
2022-12-11T10:47:15.685Z,2.65
2022-12-11T10:48:18.119Z,2.64
2022-12-11T10:49:24.182Z,2.57
2022-12-11T10:50:26.800Z,2.66
2022-12-11T10:51:32.086Z,2.58
2022-12-11T10:52:45.516Z,2.63
2022-12-11T10:53:58.717Z,2.66
2022-12-11T10:55:45.825Z,2.68
2022-12-11T10:56:49.745Z,2.71
2022-12-11T10:58:01.128Z,2.56
2022-12-11T10:59:04.178Z,2.64
2022-12-11T11:00:26.691Z,2.67
2022-12-11T11:01:31.682Z,2.73
2022-12-11T11:02:45.436Z,2.67
2022-12-11T11:04:07.479Z,2.74
2022-12-11T11:05:27.334Z,2.77
2022-12-11T11:06:30.003Z,2.78
2022-12-11T11:07:34.484Z,2.71
2022-12-11T11:08:45.884Z,2.82
2022-12-11T11:09:48.842Z,2.84
2022-12-11T11:10:54.495Z,2.89
2022-12-11T11:11:57.698Z,2.89
2022-12-11T11:13:03.405Z,2.79
2022-12-11T11:14:18.403Z,2.82
2022-12-11T11:15:27.306Z,2.89
2022-12-11T11:16:30.280Z,2.86
2022-12-11T11:17:35.414Z,2.84
2022-12-11T11:18:43.099Z,2.80
2022-12-11T11:19:48.431Z,2.85
2022-12-11T11:20:53.421Z,2.76
2022-12-11T11:21:59.450Z,2.73
2022-12-11T11:23:10.222Z,2.60
2022-12-11T11:24:24.989Z,2.69
2022-12-11T11:25:30.231Z,2.74
2022-12-11T11:27:11.283Z,2.77
2022-12-11T11:28:01.366Z,2.85
2022-12-11T11:29:30.372Z,2.82
2022-12-11T11:30:37.009Z,2.63
2022-12-11T11:31:39.420Z,2.74
2022-12-11T11:32:41.792Z,2.80
2022-12-11T11:33:57.557Z,2.68
2022-12-11T11:35:27.541Z,2.79
2022-12-11T11:36:33.480Z,2.74
2022-12-11T11:37:36.010Z,2.76
2022-12-11T11:38:46.764Z,2.66
2022-12-11T11:39:53.167Z,2.74
2022-12-11T11:41:17.414Z,2.76
2022-12-11T11:42:28.083Z,2.82
2022-12-11T11:43:37.305Z,2.79
2022-12-11T11:44:47.067Z,2.71
2022-12-11T11:46:29.400Z,2.69
2022-12-11T11:47:41.792Z,2.78
2022-12-11T11:49:07.831Z,2.77
2022-12-11T11:50:22.513Z,2.82
2022-12-11T11:51:34.541Z,2.83
2022-12-11T11:53:02.918Z,2.83
2022-12-11T11:54:33.984Z,2.82
2022-12-11T11:56:04.089Z,2.81
2022-12-11T11:57:27.372Z,2.86
2022-12-11T11:58:44.439Z,2.84
2022-12-11T11:59:58.156Z,2.89
2022-12-11T12:01:00.808Z,2.83
2022-12-11T12:02:17.975Z,2.80
2022-12-11T12:03:23.327Z,2.89
2022-12-11T12:04:31.620Z,2.77
2022-12-11T12:05:37.965Z,2.74
2022-12-11T12:06:50.708Z,2.78
2022-12-11T12:08:17.313Z,2.85
2022-12-11T12:10:05.491Z,2.83
2022-12-11T12:11:41.891Z,2.76
2022-12-11T12:13:47.516Z,2.82
2022-12-11T12:15:04.390Z,2.75
2022-12-11T12:16:51.088Z,2.71
2022-12-11T12:17:56.028Z,2.72
2022-12-11T12:19:28.117Z,2.79
2022-12-11T12:20:35.849Z,2.75
2022-12-11T12:21:42.598Z,2.85
2022-12-11T12:23:03.611Z,2.72
2022-12-11T12:24:12.224Z,2.87
2022-12-11T12:25:33.315Z,2.82
2022-12-11T12:26:52.390Z,2.74
2022-12-11T12:28:08.092Z,2.85
2022-12-11T12:29:10.686Z,2.90
2022-12-11T12:30:22.020Z,2.99
2022-12-11T12:31:51.003Z,2.96
2022-12-11T12:33:13.635Z,2.92
2022-12-11T12:34:25.105Z,2.91
2022-12-11T12:35:37.385Z,2.93
2022-12-11T12:36:50.138Z,2.90
2022-12-11T12:38:07.208Z,2.90
2022-12-11T12:39:44.836Z,2.87
2022-12-11T12:41:06.280Z,2.97
2022-12-11T12:42:48.572Z,2.90
2022-12-11T12:44:09.726Z,2.88
2022-12-11T12:45:15.237Z,2.88
2022-12-11T12:46:56.636Z,2.84
2022-12-11T12:47:59.722Z,2.84
2022-12-11T12:49:04.565Z,2.85
2022-12-11T12:50:16.640Z,2.78
2022-12-11T12:51:19.360Z,2.84
2022-12-11T12:52:29.876Z,2.80
2022-12-11T12:53:38.069Z,2.74
2022-12-11T12:54:42.929Z,2.78
2022-12-11T12:55:48.147Z,2.69
2022-12-11T12:56:50.862Z,2.78
2022-12-11T12:57:57.743Z,2.79
2022-12-11T12:59:00.902Z,2.83
2022-12-11T13:00:11.087Z,2.78
2022-12-11T13:01:21.889Z,2.76
2022-12-11T13:02:24.785Z,2.78
2022-12-11T13:03:30.978Z,2.78
2022-12-11T13:04:55.520Z,2.77
2022-12-11T13:05:58.674Z,2.76
2022-12-11T13:07:16.261Z,2.70
2022-12-11T13:08:25.880Z,2.71
2022-12-11T13:09:28.783Z,2.69
2022-12-11T13:10:34.364Z,2.65
2022-12-11T13:11:36.950Z,2.60
2022-12-11T13:12:47.163Z,2.58
2022-12-11T13:14:03.430Z,2.68
2022-12-11T13:15:06.180Z,2.68
2022-12-11T13:16:17.350Z,2.61
2022-12-11T13:21:35.889Z,2.60
2022-12-11T13:22:56.094Z,2.51
2022-12-11T13:24:15.451Z,2.53
2022-12-11T13:25:22.955Z,2.49
2022-12-11T13:26:31.185Z,2.48
2022-12-11T13:27:39.886Z,2.47
2022-12-11T13:28:42.313Z,2.51
2022-12-11T13:29:44.739Z,2.39
2022-12-11T13:31:16.869Z,2.42
2022-12-11T13:32:19.407Z,2.42
2022-12-11T13:33:23.285Z,2.44
2022-12-11T13:34:29.532Z,2.51
2022-12-11T13:35:34.356Z,2.47
2022-12-11T13:36:40.164Z,2.43
2022-12-11T13:37:50.134Z,2.44
2022-12-11T13:39:03.059Z,2.39
2022-12-11T13:40:34.017Z,2.41
2022-12-11T13:41:38.444Z,2.32
2022-12-11T13:42:50.588Z,2.37
2022-12-11T13:43:54.092Z,2.34
2022-12-11T13:44:57.132Z,2.29
2022-12-11T13:46:03.567Z,2.25
2022-12-11T13:47:11.283Z,2.21
2022-12-11T13:48:24.515Z,2.20
2022-12-11T13:49:33.941Z,2.24
2022-12-11T13:50:37.014Z,2.20
2022-12-11T13:51:39.939Z,2.25
2022-12-11T13:52:53.409Z,2.20
2022-12-11T13:54:17.616Z,2.17
2022-12-11T13:55:32.230Z,2.16
2022-12-11T13:56:35.060Z,2.09
2022-12-11T13:57:46.187Z,2.09
2022-12-11T13:58:49.567Z,2.05
2022-12-11T13:59:54.741Z,2.06
2022-12-11T14:01:17.400Z,2.09
2022-12-11T14:02:40.521Z,2.15
2022-12-11T14:03:55.932Z,2.17
2022-12-11T14:05:05.567Z,2.12
2022-12-11T14:06:18.306Z,2.16
2022-12-11T14:11:45.680Z,2.13
2022-12-11T14:12:59.528Z,2.09
2022-12-11T14:14:06.117Z,2.10
2022-12-11T14:15:15.234Z,2.10
2022-12-11T14:16:26.582Z,2.05
2022-12-11T14:21:50.861Z,1.87
2022-12-11T14:23:14.834Z,1.87
2022-12-11T14:24:17.441Z,1.84
2022-12-11T14:25:28.201Z,1.81
2022-12-11T14:26:35.677Z,1.84
2022-12-11T14:27:49.152Z,1.88
2022-12-11T14:28:53.026Z,1.80
2022-12-11T14:29:55.926Z,1.79
2022-12-11T14:31:03.775Z,1.73
2022-12-11T14:32:07.427Z,1.67
2022-12-11T14:33:11.484Z,1.71
2022-12-11T14:34:17.972Z,1.75
2022-12-11T14:35:42.487Z,1.74
2022-12-11T14:36:47.999Z,1.69
2022-12-11T14:37:52.223Z,1.63
2022-12-11T14:39:06.752Z,1.56
2022-12-11T14:40:19.271Z,1.59
2022-12-11T14:41:49.842Z,1.65
2022-12-11T14:43:00.323Z,1.59
2022-12-11T14:44:05.805Z,1.71
2022-12-11T14:45:23.322Z,1.72
2022-12-11T14:46:38.708Z,1.67
2022-12-11T14:47:43.483Z,1.65
2022-12-11T14:49:00.620Z,1.60
2022-12-11T14:50:10.654Z,1.62
2022-12-11T14:51:16.997Z,1.61
2022-12-11T14:52:49.162Z,1.58
2022-12-11T14:53:53.245Z,1.61
2022-12-11T14:55:03.737Z,1.59
2022-12-11T14:56:08.388Z,1.55
2022-12-11T14:57:23.976Z,1.50
2022-12-11T14:58:27.615Z,1.52
2022-12-11T14:59:32.499Z,1.54
2022-12-11T15:00:37.847Z,1.48
2022-12-11T15:01:40.368Z,1.42
2022-12-11T15:02:45.857Z,1.48
2022-12-11T15:03:50.102Z,1.48
2022-12-11T15:05:19.601Z,1.48
2022-12-11T15:06:28.190Z,1.47
2022-12-11T15:07:31.027Z,1.47
2022-12-11T15:08:36.164Z,1.46
2022-12-11T15:09:41.855Z,1.37
2022-12-11T15:11:09.435Z,1.32
2022-12-11T15:12:17.377Z,1.31
2022-12-11T15:13:24.117Z,1.33
2022-12-11T15:14:27.521Z,1.28
2022-12-11T15:15:32.846Z,1.20
2022-12-11T15:16:41.371Z,1.16
2022-12-11T15:22:08.775Z,1.18
2022-12-11T15:23:18.684Z,1.17
2022-12-11T15:24:37.207Z,1.16
2022-12-11T15:25:40.661Z,1.21
2022-12-11T15:26:49.265Z,1.23
2022-12-11T15:27:54.321Z,1.12
2022-12-11T15:29:02.275Z,1.10
2022-12-11T15:30:29.303Z,1.04
2022-12-11T15:31:35.267Z,1.09
2022-12-11T15:32:38.100Z,1.00
2022-12-11T15:33:49.861Z,0.99
2022-12-11T15:35:00.615Z,0.99
2022-12-11T15:36:06.964Z,1.02
2022-12-11T15:37:29.454Z,1.07
2022-12-11T15:38:42.375Z,1.01
2022-12-11T15:39:45.203Z,1.05
2022-12-11T15:40:47.859Z,1.08
2022-12-11T15:41:50.256Z,1.10
2022-12-11T15:42:55.321Z,1.10
2022-12-11T15:44:02.271Z,1.11
2022-12-11T15:45:08.199Z,1.13
2022-12-11T15:46:11.139Z,1.14
2022-12-11T15:47:22.485Z,1.09
2022-12-11T15:48:25.079Z,1.08
2022-12-11T15:49:29.837Z,1.06
2022-12-11T15:50:33.096Z,1.08